Dolphin — WTD6974 — position and weather

sailwx.info

Track history (hours):
 
Tides and Currents Weather Stations Pressure Air Temp Water Temp Dewpoint Dewpoint Depression Visibility Wind Speed Wind Dir Waves Ship Positions

Dolphin

Owner: PENN MARITIME INC, Seattle, WA. More information available from US FCC via Universal Licensing System and Coast Guard Vessel Documentation Center.

Last reported at 2015-Feb-14 09:10 UTC. Time now 2015-Mar-02 05:06 UTC.
Position N 29°26' W 094°50'.
Warning: this ship's position is 15 days out of date.

Length 41 m; draft 6.9 m.

Type: Towing. MMSI: 366920980.

Date/timePositionNaut miles runAvg speedWind from/ knotsBaromVisibWave heightAir tempDewpointWater temp
2015-Feb-14 09:10N 29°26' W 094°50'4 7.1
2015-Feb-14 08:33N 29°30' W 094°52'7 6.6
2015-Feb-14 07:33N 29°36' W 094°57'7 6.7
2015-Feb-14 06:32N 29°42' W 094°60'6 5.8
2015-Feb-14 05:31N 29°46' W 095°05'3 2.7
2015-Feb-14 04:31N 29°44' W 095°08'0 0.0
2015-Feb-14 03:33N 29°44' W 095°08'0 0.0
2015-Feb-14 02:33N 29°44' W 095°08'0 0.0
2015-Feb-14 01:33N 29°44' W 095°08'0 0.0
2015-Feb-14 00:33N 29°44' W 095°08'0 0.0
2015-Feb-13 23:33N 29°44' W 095°08'0 0.0
2015-Feb-13 22:33N 29°44' W 095°08'0 0.0
2015-Feb-13 21:32N 29°44' W 095°08'0 0.0
2015-Feb-13 20:33N 29°44' W 095°08'0 0.0
2015-Feb-13 19:33N 29°44' W 095°08'0 0.0
2015-Feb-13 18:33N 29°44' W 095°08'0 0.0
2015-Feb-13 17:33N 29°44' W 095°08'0 0.0
2015-Feb-13 16:33N 29°44' W 095°08'0 0.0
2015-Feb-13 15:31N 29°44' W 095°08'0 0.0
2015-Feb-13 14:33N 29°44' W 095°08'0 0.0
2015-Feb-13 13:33N 29°44' W 095°08'0 0.0
2015-Feb-13 12:33N 29°44' W 095°08'0 0.0
2015-Feb-13 11:33N 29°44' W 095°08'0 0.0
2015-Feb-13 10:33N 29°44' W 095°08'0 0.0
2015-Feb-13 09:33N 29°44' W 095°08'0 0.0
2015-Feb-13 08:33N 29°44' W 095°08'0 0.0
2015-Feb-13 07:33N 29°44' W 095°08'0 0.0
2015-Feb-13 05:33N 29°44' W 095°08'0 0.0
2015-Feb-13 04:33N 29°44' W 095°08'0 0.0
2015-Feb-13 03:33N 29°44' W 095°08'0 0.0
2015-Feb-13 02:33N 29°44' W 095°08'0 0.0
2015-Feb-13 01:33N 29°44' W 095°08'0 0.0
2015-Feb-13 00:33N 29°44' W 095°08'0 0.0
2015-Feb-12 23:33N 29°44' W 095°08'0 0.0
2015-Feb-12 22:33N 29°44' W 095°08'3 3.3
2015-Feb-12 21:33N 29°45' W 095°04'7 7.5
2015-Feb-12 20:33N 29°40' W 094°58'9 8.6
2015-Feb-12 19:33N 29°32' W 094°54'58 4.1
2015-Feb-12 05:18N 29°34' W 093°47'3 3.5
2015-Feb-12 04:28N 29°37' W 093°49'8 7.8
2015-Feb-12 03:30N 29°44' W 093°52'7 7.2
2015-Feb-12 02:33N 29°49' W 093°57'  
Track history (hours):
 
Tides and Currents Weather Stations Pressure Air Temp Water Temp Dewpoint Dewpoint Depression Visibility Wind Speed Wind Dir Waves Ship Positions

Dolphin

Owner: PENN MARITIME INC, Seattle, WA. More information available from US FCC via Universal Licensing System and Coast Guard Vessel Documentation Center.

Last reported at 2015-Feb-14 09:10 UTC. Time now 2015-Mar-02 05:06 UTC.
Position N 29°26' W 094°50'.
Warning: this ship's position is 15 days out of date.

Length 41 m; draft 6.9 m.

Type: Towing. MMSI: 366920980.

Date/timePositionNaut miles runAvg speedWind from/ knotsBaromVisibWave heightAir tempDewpointWater temp
2015-Feb-14 09:10N 29°26' W 094°50'4 7.1
2015-Feb-14 08:33N 29°30' W 094°52'7 6.6
2015-Feb-14 07:33N 29°36' W 094°57'7 6.7
2015-Feb-14 06:32N 29°42' W 094°60'6 5.8
2015-Feb-14 05:31N 29°46' W 095°05'3 2.7
2015-Feb-14 04:31N 29°44' W 095°08'0 0.0
2015-Feb-14 03:33N 29°44' W 095°08'0 0.0
2015-Feb-14 02:33N 29°44' W 095°08'0 0.0
2015-Feb-14 01:33N 29°44' W 095°08'0 0.0
2015-Feb-14 00:33N 29°44' W 095°08'0 0.0
2015-Feb-13 23:33N 29°44' W 095°08'0 0.0
2015-Feb-13 22:33N 29°44' W 095°08'0 0.0
2015-Feb-13 21:32N 29°44' W 095°08'0 0.0
2015-Feb-13 20:33N 29°44' W 095°08'0 0.0
2015-Feb-13 19:33N 29°44' W 095°08'0 0.0
2015-Feb-13 18:33N 29°44' W 095°08'0 0.0
2015-Feb-13 17:33N 29°44' W 095°08'0 0.0
2015-Feb-13 16:33N 29°44' W 095°08'0 0.0
2015-Feb-13 15:31N 29°44' W 095°08'0 0.0
2015-Feb-13 14:33N 29°44' W 095°08'0 0.0
2015-Feb-13 13:33N 29°44' W 095°08'0 0.0
2015-Feb-13 12:33N 29°44' W 095°08'0 0.0
2015-Feb-13 11:33N 29°44' W 095°08'0 0.0
2015-Feb-13 10:33N 29°44' W 095°08'0 0.0
2015-Feb-13 09:33N 29°44' W 095°08'0 0.0
2015-Feb-13 08:33N 29°44' W 095°08'0 0.0
2015-Feb-13 07:33N 29°44' W 095°08'0 0.0
2015-Feb-13 05:33N 29°44' W 095°08'0 0.0
2015-Feb-13 04:33N 29°44' W 095°08'0 0.0
2015-Feb-13 03:33N 29°44' W 095°08'0 0.0
2015-Feb-13 02:33N 29°44' W 095°08'0 0.0
2015-Feb-13 01:33N 29°44' W 095°08'0 0.0
2015-Feb-13 00:33N 29°44' W 095°08'0 0.0
2015-Feb-12 23:33N 29°44' W 095°08'0 0.0
2015-Feb-12 22:33N 29°44' W 095°08'3 3.3
2015-Feb-12 21:33N 29°45' W 095°04'7 7.5
2015-Feb-12 20:33N 29°40' W 094°58'9 8.6
2015-Feb-12 19:33N 29°32' W 094°54'58 4.1
2015-Feb-12 05:18N 29°34' W 093°47'3 3.5
2015-Feb-12 04:28N 29°37' W 093°49'8 7.8
2015-Feb-12 03:30N 29°44' W 093°52'7 7.2
2015-Feb-12 02:33N 29°49' W 093°57'  

Dump ship's entire track history